Terminal Aerodrome Forecast
Issued by NWS

Home | Current Version | Previous Version | Text Only | Print | Product List | Glossary On
Versions: 1 2 3 4 5 6 7 8 9 10 11 12 13 14
863
FTUS45 KABQ 291732
TAFGUP
TAF
KGUP 291732Z 2918/3018 29007KT P6SM SHRA BKN050 OVC070
     FM292000 22010KT P6SM VCTS BKN070CB OVC100
      TEMPO 2920/2923 VRB15G25KT -TSRA BKN050CB
     FM300000 VRB05KT P6SM VCSH BKN060
     FM300900 VRB03KT P6SM SCT050=

USA.gov is the U.S. government's official web portal to all federal, state and local government web resources and services.